TimePST,TemperatureF,Dew PointF,Humidity,Sea Level PressureIn,VisibilityMPH,Wind Direction,Wind SpeedMPH,Gust SpeedMPH,PrecipitationIn,Events,Conditions,WindDirDegrees,DateUTC
12:56 AM,35.1,34.0,96,30.14,10.0,SSW,3.5,-,N/A,,Partly Cloudy,200,2012-02-12 08:56:00
1:56 AM,35.1,33.1,92,30.14,10.0,Calm,Calm,-,N/A,,Scattered Clouds,0,2012-02-12 09:56:00
2:56 AM,35.1,33.1,92,30.14,10.0,Calm,Calm,-,N/A,,Mostly Cloudy,0,2012-02-12 10:56:00
5:56 AM,39.0,37.9,96,30.08,2.5,SE,4.6,-,N/A,,Overcast,140,2012-02-12 13:56:00
6:11 AM,39.2,37.4,93,30.07,6.0,South,3.5,-,N/A,,Overcast,180,2012-02-12 14:11:00
6:39 AM,39.2,37.4,93,30.06,6.0,SE,3.5,-,N/A,,Overcast,130,2012-02-12 14:39:00
6:56 AM,39.0,37.9,96,30.06,7.0,SE,4.6,-,N/A,,Overcast,140,2012-02-12 14:56:00
7:20 AM,39.2,37.4,93,30.05,7.0,SSE,4.6,-,N/A,,Overcast,150,2012-02-12 15:20:00
8:56 AM,39.2,39.2,100,30.05,6.0,SE,5.8,-,N/A,,Overcast,140,2012-02-12 16:56:00
9:56 AM,42.1,37.0,82,30.03,10.0,South,5.8,-,N/A,,Mostly Cloudy,180,2012-02-12 17:56:00
10:25 AM,44.6,37.4,76,30.02,10.0,SE,6.9,-,N/A,,Scattered Clouds,130,2012-02-12 18:25:00
10:56 AM,44.6,37.4,76,30.01,10.0,East,5.8,-,N/A,,Scattered Clouds,90,2012-02-12 18:56:00
11:56 AM,46.4,39.2,76,29.96,10.0,Variable,5.8,-,N/A,,Clear,0,2012-02-12 19:56:00
12:56 PM,48.2,37.4,66,29.95,10.0,SE,3.5,-,N/A,,Mostly Cloudy,130,2012-02-12 20:56:00
1:56 PM,46.4,35.6,66,29.93,10.0,South,11.5,-,N/A,,Overcast,190,2012-02-12 21:56:00
2:56 PM,48.2,37.4,66,29.92,10.0,South,5.8,-,N/A,,Overcast,190,2012-02-12 22:56:00
3:56 PM,46.9,37.0,68,29.91,10.0,South,4.6,-,N/A,,Overcast,190,2012-02-12 23:56:00
4:43 PM,46.4,37.4,71,29.90,10.0,South,5.8,-,N/A,,Overcast,190,2012-02-13 00:43:00
5:56 PM,43.0,37.9,82,29.91,10.0,WSW,8.1,-,0.01,Rain,Light Rain,240,2012-02-13 01:56:00
7:56 PM,42.8,37.4,81,29.91,10.0,Calm,Calm,-,N/A,Rain,Light Rain,0,2012-02-13 03:56:00
8:56 PM,41.0,39.0,93,29.92,8.0,Calm,Calm,-,0.03,Rain,Light Rain,0,2012-02-13 04:56:00
9:45 PM,41.0,37.4,87,29.92,10.0,Calm,Calm,-,0.04,Rain,Light Rain,0,2012-02-13 05:45:00
9:56 PM,41.0,37.9,89,29.92,10.0,Calm,Calm,-,0.04,Rain,Light Rain,0,2012-02-13 05:56:00
10:56 PM,39.9,37.9,93,29.93,10.0,WNW,3.5,-,0.02,Rain,Light Rain,300,2012-02-13 06:56:00
11:56 PM,39.9,37.9,93,29.93,10.0,NNW,4.6,-,0.01,Rain,Light Rain,330,2012-02-13 07:56:00